createdAt,value
2019-03-17T00:01:21.213Z,12.87
2019-03-17T00:03:53.411Z,12.79
2019-03-17T00:06:24.861Z,12.80
2019-03-17T00:08:56.334Z,12.69
2019-03-17T00:11:27.706Z,12.76
2019-03-17T00:13:58.699Z,12.90
2019-03-17T00:16:30.734Z,12.85
2019-03-17T00:19:02.901Z,12.68
2019-03-17T00:21:35.467Z,12.73
2019-03-17T00:24:06.445Z,12.67
2019-03-17T00:26:37.991Z,12.59
2019-03-17T00:29:09.245Z,12.67
2019-03-17T00:31:40.559Z,12.78
2019-03-17T00:34:11.655Z,12.80
2019-03-17T00:36:42.774Z,12.77
2019-03-17T00:39:14.495Z,12.78
2019-03-17T00:41:45.582Z,12.74
2019-03-17T00:44:16.927Z,12.78
2019-03-17T00:46:48.209Z,12.80
2019-03-17T00:49:19.606Z,12.71
2019-03-17T00:51:50.580Z,12.77
2019-03-17T00:54:21.575Z,12.76
2019-03-17T00:56:52.927Z,12.76
2019-03-17T00:59:24.725Z,12.84
2019-03-17T01:01:55.751Z,12.74
2019-03-17T01:04:27.069Z,12.74
2019-03-17T01:06:58.118Z,12.79
2019-03-17T01:09:29.485Z,12.79
2019-03-17T01:12:00.837Z,12.71
2019-03-17T01:14:31.860Z,12.64
2019-03-17T01:17:03.105Z,12.69
2019-03-17T01:19:35.398Z,12.74
2019-03-17T01:22:06.462Z,12.72
2019-03-17T01:24:37.774Z,12.68
2019-03-17T01:27:09.760Z,12.65
2019-03-17T01:29:41.413Z,12.63
2019-03-17T01:32:12.763Z,12.72
2019-03-17T01:34:43.742Z,12.73
2019-03-17T01:37:14.716Z,12.73
2019-03-17T01:39:45.791Z,12.61
2019-03-17T01:42:18.541Z,12.61
2019-03-17T01:44:49.993Z,12.61
2019-03-17T01:47:22.273Z,12.46
2019-03-17T01:49:53.599Z,12.52
2019-03-17T01:52:24.988Z,12.52
2019-03-17T01:54:56.290Z,12.47
2019-03-17T01:57:28.206Z,12.48
2019-03-17T01:59:59.621Z,12.49
2019-03-17T02:02:31.208Z,12.50
2019-03-17T02:05:02.201Z,12.44
2019-03-17T02:07:34.106Z,12.45
2019-03-17T02:10:05.944Z,12.51
2019-03-17T02:12:37.478Z,12.34
2019-03-17T02:15:09.544Z,12.47
2019-03-17T02:17:40.992Z,12.44
2019-03-17T02:20:12.373Z,12.48
2019-03-17T02:22:43.620Z,12.44
2019-03-17T02:25:14.611Z,12.24
2019-03-17T02:27:45.875Z,12.35
2019-03-17T02:30:17.307Z,12.37
2019-03-17T02:32:48.574Z,12.41
2019-03-17T02:35:19.834Z,12.54
2019-03-17T02:37:51.186Z,12.52
2019-03-17T02:40:22.902Z,12.44
2019-03-17T02:42:53.915Z,12.44
2019-03-17T02:45:25.031Z,12.30
2019-03-17T02:47:56.353Z,12.30
2019-03-17T02:50:28.319Z,12.30
2019-03-17T02:52:59.645Z,12.36
2019-03-17T02:55:31.142Z,12.21
2019-03-17T02:58:02.224Z,12.22
2019-03-17T03:00:33.506Z,12.32
2019-03-17T03:03:05.809Z,12.26
2019-03-17T03:05:53.545Z,12.21
2019-03-17T03:08:09.839Z,12.10
2019-03-17T03:10:40.850Z,11.98
2019-03-17T03:13:11.901Z,11.91
2019-03-17T03:15:43.236Z,11.78
2019-03-17T03:18:14.565Z,11.87
2019-03-17T03:20:46.033Z,11.82
2019-03-17T03:23:17.720Z,11.70
2019-03-17T03:25:49.363Z,11.71
2019-03-17T03:28:20.672Z,11.71
2019-03-17T03:30:51.673Z,11.59
2019-03-17T03:33:23.107Z,11.58
2019-03-17T03:36:09.392Z,11.68
2019-03-17T03:38:27.041Z,11.68
2019-03-17T03:40:58.342Z,11.69
2019-03-17T03:43:29.305Z,11.77
2019-03-17T03:46:00.385Z,11.77
2019-03-17T03:48:31.507Z,11.77
2019-03-17T03:51:02.947Z,11.69
2019-03-17T03:53:34.602Z,11.70
2019-03-17T03:56:05.868Z,11.68
2019-03-17T03:58:36.924Z,11.74
2019-03-17T04:01:08.226Z,11.79
2019-03-17T04:03:39.954Z,11.81
2019-03-17T04:06:25.270Z,11.80
2019-03-17T04:08:43.979Z,11.88
2019-03-17T04:11:15.293Z,11.79
2019-03-17T04:13:47.525Z,11.81
2019-03-17T04:16:18.790Z,11.78
2019-03-17T04:18:50.094Z,11.84
2019-03-17T04:21:21.992Z,11.89
2019-03-17T04:23:53.294Z,11.86
2019-03-17T04:26:25.912Z,11.92
2019-03-17T04:28:56.974Z,11.97
2019-03-17T04:31:28.024Z,11.93
2019-03-17T04:33:59.004Z,12.02
2019-03-17T04:36:40.063Z,12.00
2019-03-17T04:39:04.698Z,11.91
2019-03-17T04:41:36.602Z,11.97
2019-03-17T04:44:20.030Z,11.99
2019-03-17T04:46:40.577Z,12.09
2019-03-17T04:49:12.381Z,12.20
2019-03-17T04:51:44.363Z,12.18
2019-03-17T04:54:15.395Z,12.19
2019-03-17T04:56:46.891Z,12.18
2019-03-17T04:59:17.938Z,12.33
2019-03-17T05:01:48.915Z,12.33
2019-03-17T05:04:19.944Z,12.43
2019-03-17T05:06:52.909Z,12.39
2019-03-17T05:09:25.607Z,12.43
2019-03-17T05:11:56.953Z,12.48
2019-03-17T05:14:28.416Z,12.46
2019-03-17T05:16:59.457Z,12.43
2019-03-17T05:19:30.777Z,12.40
2019-03-17T05:22:01.765Z,12.47
2019-03-17T05:24:32.983Z,12.41
2019-03-17T05:27:04.208Z,12.48
2019-03-17T05:29:42.558Z,12.38
2019-03-17T05:32:13.956Z,12.43
2019-03-17T05:34:45.470Z,12.43
2019-03-17T05:37:16.752Z,12.40
2019-03-17T05:39:48.032Z,12.51
2019-03-17T05:42:19.483Z,12.49
2019-03-17T05:44:50.459Z,12.36
2019-03-17T05:47:21.757Z,12.39
2019-03-17T05:49:53.726Z,12.37
2019-03-17T05:52:25.886Z,12.39
2019-03-17T05:54:57.238Z,12.45
2019-03-17T05:57:28.587Z,12.47
2019-03-17T05:59:59.798Z,12.40
2019-03-17T06:02:31.090Z,12.47
2019-03-17T06:05:02.748Z,12.50
2019-03-17T06:07:34.266Z,12.51
2019-03-17T06:10:07.290Z,12.51
2019-03-17T06:12:38.346Z,12.58
2019-03-17T06:15:10.272Z,12.47
2019-03-17T06:17:41.437Z,12.39
2019-03-17T06:20:12.868Z,12.46
2019-03-17T06:22:43.884Z,12.42
2019-03-17T06:25:15.024Z,12.40
2019-03-17T06:27:46.127Z,12.41
2019-03-17T06:30:17.185Z,12.26
2019-03-17T06:32:48.497Z,12.40
2019-03-17T06:35:19.846Z,12.31
2019-03-17T06:37:51.411Z,12.41
2019-03-17T06:40:22.506Z,12.39
2019-03-17T06:42:54.048Z,12.39
2019-03-17T06:45:25.828Z,12.54
2019-03-17T06:47:57.428Z,12.50
2019-03-17T06:50:28.477Z,12.53
2019-03-17T06:52:59.948Z,12.55
2019-03-17T06:55:31.277Z,12.61
2019-03-17T06:58:02.892Z,12.64
2019-03-17T07:00:34.205Z,12.79
2019-03-17T07:03:06.339Z,12.92
2019-03-17T07:05:38.064Z,12.85
2019-03-17T07:08:09.738Z,13.09
2019-03-17T07:10:40.744Z,13.20
2019-03-17T07:13:11.801Z,13.25
2019-03-17T07:15:42.932Z,13.34
2019-03-17T07:18:14.305Z,13.43
2019-03-17T07:20:45.441Z,13.43
2019-03-17T07:23:16.759Z,13.63
2019-03-17T07:25:48.043Z,13.70
2019-03-17T07:28:19.613Z,13.77
2019-03-17T07:30:50.602Z,13.79
2019-03-17T07:33:22.852Z,13.83
2019-03-17T07:35:54.596Z,13.95
2019-03-17T07:38:36.535Z,14.07
2019-03-17T07:41:08.617Z,14.14
2019-03-17T07:43:39.613Z,14.15
2019-03-17T07:46:10.613Z,14.23
2019-03-17T07:48:41.917Z,14.38
2019-03-17T07:51:12.909Z,14.47
2019-03-17T07:53:43.916Z,14.62
2019-03-17T07:56:14.901Z,14.77
2019-03-17T07:58:46.388Z,14.91
2019-03-17T08:01:17.702Z,15.02
2019-03-17T08:03:49.148Z,15.10
2019-03-17T08:06:20.142Z,15.12
2019-03-17T08:08:51.440Z,15.17
2019-03-17T08:11:22.957Z,15.23
2019-03-17T08:13:54.826Z,15.31
2019-03-17T08:16:29.841Z,15.48
2019-03-17T08:19:01.110Z,15.53
2019-03-17T08:21:32.082Z,15.63
2019-03-17T08:24:03.116Z,15.64
2019-03-17T08:26:35.799Z,15.83
2019-03-17T08:29:43.543Z,15.96
2019-03-17T08:32:14.847Z,15.96
2019-03-17T08:34:46.283Z,16.00
2019-03-17T08:37:17.296Z,16.06
2019-03-17T08:39:48.939Z,16.02
2019-03-17T08:42:20.537Z,16.12
2019-03-17T08:44:52.085Z,16.48
2019-03-17T08:47:23.133Z,16.54
2019-03-17T08:49:54.156Z,16.52
2019-03-17T08:52:29.113Z,16.67
2019-03-17T08:55:01.889Z,16.65
2019-03-17T08:57:37.039Z,16.82
2019-03-17T09:00:10.556Z,16.90
2019-03-17T09:02:42.889Z,16.94
2019-03-17T09:05:16.006Z,16.97
2019-03-17T09:07:48.563Z,16.98
2019-03-17T09:10:20.499Z,17.00
2019-03-17T09:12:51.568Z,17.14
2019-03-17T09:15:22.877Z,17.11
2019-03-17T09:17:54.574Z,17.05
2019-03-17T09:20:26.165Z,17.05
2019-03-17T09:22:57.156Z,17.24
2019-03-17T09:25:28.352Z,17.34
2019-03-17T09:27:59.810Z,17.52
2019-03-17T09:30:30.829Z,17.56
2019-03-17T09:33:02.122Z,17.56
2019-03-17T09:35:33.166Z,17.52
2019-03-17T09:38:04.908Z,17.62
2019-03-17T09:40:36.882Z,17.84
2019-03-17T09:43:10.772Z,17.81
2019-03-17T09:45:53.726Z,17.82
2019-03-17T09:48:25.092Z,17.73
2019-03-17T09:50:56.069Z,17.69
2019-03-17T09:53:28.612Z,17.78
2019-03-17T09:56:00.335Z,17.90
2019-03-17T09:58:32.811Z,17.82
2019-03-17T10:01:03.946Z,17.97
2019-03-17T10:03:35.224Z,17.90
2019-03-17T10:06:06.781Z,17.96
2019-03-17T10:08:37.824Z,17.96
2019-03-17T10:11:10.768Z,18.11
2019-03-17T10:13:42.294Z,18.18
2019-03-17T10:16:13.889Z,18.32
2019-03-17T10:18:46.677Z,18.31
2019-03-17T10:21:18.730Z,18.57
2019-03-17T10:23:49.800Z,18.60
2019-03-17T10:26:20.910Z,18.52
2019-03-17T10:28:51.932Z,18.60
2019-03-17T10:31:25.385Z,18.69
2019-03-17T10:33:56.524Z,18.61
2019-03-17T10:36:27.530Z,18.64
2019-03-17T10:38:58.583Z,18.65
2019-03-17T10:41:29.780Z,18.59
2019-03-17T10:44:00.999Z,18.71
2019-03-17T10:46:35.609Z,18.81
2019-03-17T10:49:11.461Z,18.87
2019-03-17T10:51:42.838Z,18.76
2019-03-17T10:54:15.113Z,18.81
2019-03-17T10:56:47.192Z,18.74
2019-03-17T10:59:18.995Z,18.93
2019-03-17T11:01:50.041Z,18.85
2019-03-17T11:04:21.356Z,18.87
2019-03-17T11:06:54.852Z,19.01
2019-03-17T11:09:35.209Z,18.87
2019-03-17T11:12:06.700Z,18.81
2019-03-17T11:14:38.489Z,18.75
2019-03-17T11:17:09.485Z,18.34
2019-03-17T11:19:40.481Z,18.40
2019-03-17T11:22:11.505Z,18.19
2019-03-17T11:24:42.516Z,18.10
2019-03-17T11:27:13.602Z,18.27
2019-03-17T11:29:47.182Z,18.31
2019-03-17T11:32:18.709Z,18.38
2019-03-17T11:34:50.166Z,18.56
2019-03-17T11:37:23.670Z,18.49
2019-03-17T11:39:54.974Z,18.42
2019-03-17T11:42:29.563Z,18.32
2019-03-17T11:45:01.137Z,18.31
2019-03-17T11:47:32.823Z,18.02
2019-03-17T11:50:03.958Z,17.80
2019-03-17T11:52:40.484Z,17.68
2019-03-17T11:55:12.069Z,17.48
2019-03-17T11:57:43.428Z,17.55
2019-03-17T12:00:16.770Z,17.43
2019-03-17T12:02:54.501Z,17.33
2019-03-17T12:05:25.797Z,17.29
2019-03-17T12:08:01.914Z,17.33
2019-03-17T12:10:33.265Z,17.62
2019-03-17T12:13:04.313Z,17.52
2019-03-17T12:15:35.533Z,17.40
2019-03-17T12:18:06.815Z,17.53
2019-03-17T12:20:37.804Z,17.43
2019-03-17T12:23:08.849Z,17.23
2019-03-17T12:25:40.689Z,17.29
2019-03-17T12:28:11.847Z,17.26
2019-03-17T12:30:43.179Z,17.31
2019-03-17T12:33:14.429Z,17.23
2019-03-17T12:35:46.375Z,16.87
2019-03-17T12:38:18.898Z,16.87
2019-03-17T12:40:50.000Z,16.73
2019-03-17T12:43:21.065Z,16.88
2019-03-17T12:45:52.393Z,16.89
2019-03-17T12:48:23.641Z,16.79
2019-03-17T12:50:54.888Z,16.66
2019-03-17T12:53:25.946Z,16.44
2019-03-17T12:55:56.999Z,16.49
2019-03-17T12:58:28.302Z,16.42
2019-03-17T13:00:59.291Z,16.52
2019-03-17T13:03:30.319Z,16.36
2019-03-17T13:06:01.660Z,16.12
2019-03-17T13:08:33.027Z,15.97
2019-03-17T13:11:04.035Z,16.07
2019-03-17T13:13:35.385Z,16.12
2019-03-17T13:16:07.425Z,16.04
2019-03-17T13:18:38.696Z,16.05
2019-03-17T13:21:10.519Z,15.98
2019-03-17T13:23:41.799Z,15.84
2019-03-17T13:26:13.396Z,15.76
2019-03-17T13:28:44.603Z,15.62
2019-03-17T13:31:15.852Z,15.28
2019-03-17T13:33:47.810Z,15.00
2019-03-17T13:36:19.062Z,14.78
2019-03-17T13:38:50.613Z,14.42
2019-03-17T13:41:21.596Z,14.19
2019-03-17T13:43:53.462Z,13.88
2019-03-17T13:46:24.575Z,13.62
2019-03-17T13:48:56.204Z,13.58
2019-03-17T13:51:27.244Z,13.36
2019-03-17T13:53:58.803Z,12.99
2019-03-17T13:56:29.885Z,12.83
2019-03-17T13:59:01.211Z,12.61
2019-03-17T14:01:32.597Z,12.48
2019-03-17T14:04:03.873Z,12.16
2019-03-17T14:06:35.352Z,11.97
2019-03-17T14:09:07.825Z,11.95
2019-03-17T14:11:39.165Z,11.68
2019-03-17T14:14:10.893Z,11.56
2019-03-17T14:16:42.404Z,11.56
2019-03-17T14:19:13.904Z,11.17
2019-03-17T14:21:45.269Z,11.03
2019-03-17T14:24:17.025Z,11.05
2019-03-17T14:26:48.408Z,11.05
2019-03-17T14:29:20.838Z,10.93
2019-03-17T14:31:52.038Z,10.65
2019-03-17T14:34:23.053Z,10.79
2019-03-17T14:36:54.131Z,10.71
2019-03-17T14:39:25.740Z,10.61
2019-03-17T14:41:57.175Z,10.64
2019-03-17T14:44:28.564Z,10.47
2019-03-17T14:46:59.875Z,10.57
2019-03-17T14:49:31.644Z,10.62
2019-03-17T14:52:02.619Z,10.58
2019-03-17T14:54:34.369Z,10.33
2019-03-17T14:57:05.916Z,10.37
2019-03-17T14:59:57.107Z,10.08
2019-03-17T15:02:28.861Z,9.92
2019-03-17T15:05:00.374Z,9.78
2019-03-17T15:07:31.390Z,9.77
2019-03-17T15:10:02.533Z,9.89
2019-03-17T15:12:33.921Z,9.84
2019-03-17T15:15:05.989Z,9.58
2019-03-17T15:17:37.917Z,9.67
2019-03-17T15:20:12.114Z,9.63
2019-03-17T15:22:44.698Z,9.73
2019-03-17T15:25:16.866Z,9.75
2019-03-17T15:27:48.019Z,9.57
2019-03-17T15:30:22.667Z,9.53
2019-03-17T15:32:54.084Z,9.70
2019-03-17T15:35:25.063Z,9.86
2019-03-17T15:37:56.332Z,10.14
2019-03-17T15:40:27.697Z,9.96
2019-03-17T15:42:59.495Z,9.98
2019-03-17T15:45:30.714Z,9.96
2019-03-17T15:48:04.096Z,9.87
2019-03-17T15:50:35.597Z,10.07
2019-03-17T15:53:06.861Z,10.19
2019-03-17T15:55:38.087Z,10.12
2019-03-17T15:58:09.084Z,10.21
2019-03-17T16:00:40.975Z,10.42
2019-03-17T16:03:13.283Z,10.61
2019-03-17T16:05:44.487Z,10.27
2019-03-17T16:08:15.629Z,9.94
2019-03-17T16:10:46.607Z,10.19
2019-03-17T16:13:17.887Z,10.14
2019-03-17T16:15:48.915Z,10.32
2019-03-17T16:18:19.972Z,10.50
2019-03-17T16:20:51.033Z,10.54
2019-03-17T16:23:22.112Z,10.61
2019-03-17T16:25:53.422Z,10.53
2019-03-17T16:28:24.791Z,10.42
2019-03-17T16:30:56.328Z,10.62
2019-03-17T16:33:27.306Z,10.56
2019-03-17T16:35:59.463Z,10.79
2019-03-17T16:38:30.496Z,10.71
2019-03-17T16:41:01.719Z,10.79
2019-03-17T16:43:32.696Z,10.69
2019-03-17T16:46:04.105Z,10.46
2019-03-17T16:48:35.150Z,10.68
2019-03-17T16:51:06.590Z,10.77
2019-03-17T16:53:37.625Z,10.75
2019-03-17T16:56:08.808Z,10.78
2019-03-17T16:58:41.941Z,10.75
2019-03-17T17:01:13.480Z,10.67
2019-03-17T17:03:44.499Z,10.66
2019-03-17T17:06:15.519Z,10.54
2019-03-17T17:08:47.373Z,10.54
2019-03-17T17:11:18.401Z,10.66
2019-03-17T17:13:50.780Z,10.43
2019-03-17T17:16:22.084Z,10.23
2019-03-17T17:18:53.179Z,10.13
2019-03-17T17:21:24.184Z,10.09
2019-03-17T17:23:55.165Z,9.67
2019-03-17T17:26:36.693Z,9.77
2019-03-17T17:28:59.998Z,9.84
2019-03-17T17:31:31.299Z,9.66
2019-03-17T17:34:03.659Z,9.46
2019-03-17T17:36:35.359Z,9.76
2019-03-17T17:39:09.580Z,10.00
2019-03-17T17:41:40.736Z,10.11
2019-03-17T17:44:12.343Z,10.10
2019-03-17T17:46:43.636Z,9.98
2019-03-17T17:49:14.990Z,9.84
2019-03-17T17:51:46.325Z,9.88
2019-03-17T17:54:17.364Z,9.93
2019-03-17T17:56:48.703Z,9.83
2019-03-17T17:59:19.963Z,9.78
2019-03-17T18:01:51.778Z,9.61
2019-03-17T18:04:23.198Z,9.61
2019-03-17T18:06:54.514Z,9.64
2019-03-17T18:09:25.994Z,9.73
2019-03-17T18:11:57.552Z,9.67
2019-03-17T18:14:33.424Z,9.50
2019-03-17T18:17:15.800Z,9.51
2019-03-17T18:19:48.042Z,9.37
2019-03-17T18:22:19.443Z,9.11
2019-03-17T18:24:50.503Z,9.14
2019-03-17T18:27:21.939Z,9.28
2019-03-17T18:29:57.662Z,9.28
2019-03-17T18:32:29.236Z,8.93
2019-03-17T18:35:02.020Z,8.81
2019-03-17T18:37:32.986Z,8.81
2019-03-17T18:40:04.924Z,9.04
2019-03-17T18:42:36.237Z,8.98
2019-03-17T18:45:07.954Z,8.85
2019-03-17T18:47:40.758Z,8.92
2019-03-17T18:50:19.958Z,8.98
2019-03-17T18:52:46.129Z,9.07
2019-03-17T18:55:19.658Z,9.01
2019-03-17T18:57:50.702Z,9.03
2019-03-17T19:00:21.947Z,8.82
2019-03-17T19:02:53.032Z,8.98
2019-03-17T19:05:24.233Z,9.06
2019-03-17T19:07:55.225Z,9.11
2019-03-17T19:10:26.589Z,9.20
2019-03-17T19:12:57.828Z,8.88
2019-03-17T19:15:28.811Z,8.78
2019-03-17T19:18:00.252Z,8.99
2019-03-17T19:20:51.096Z,9.17
2019-03-17T19:23:22.695Z,9.28
2019-03-17T19:25:54.146Z,9.42
2019-03-17T19:28:31.570Z,9.32
2019-03-17T19:31:02.879Z,9.18
2019-03-17T19:33:36.222Z,8.90
2019-03-17T19:36:06.697Z,9.18
2019-03-17T19:38:37.678Z,9.20
2019-03-17T19:41:08.627Z,9.28
2019-03-17T19:43:39.605Z,9.19
2019-03-17T19:46:10.665Z,9.23
2019-03-17T19:48:42.058Z,9.04
2019-03-17T19:51:13.062Z,8.94
2019-03-17T19:53:44.505Z,8.91
2019-03-17T19:56:15.494Z,8.89
2019-03-17T19:58:46.802Z,9.01
2019-03-17T20:01:17.920Z,8.98
2019-03-17T20:03:48.979Z,8.88
2019-03-17T20:06:20.520Z,9.01
2019-03-17T20:08:51.497Z,9.01
2019-03-17T20:11:25.597Z,8.82
2019-03-17T20:13:55.866Z,9.04
2019-03-17T20:16:27.139Z,8.81
2019-03-17T20:18:58.219Z,8.90
2019-03-17T20:21:29.521Z,9.03
2019-03-17T20:24:01.760Z,8.87
2019-03-17T20:26:33.426Z,9.09
2019-03-17T20:29:04.470Z,9.02
2019-03-17T20:31:35.549Z,9.09
2019-03-17T20:34:07.212Z,8.76
2019-03-17T20:36:39.472Z,8.85
2019-03-17T20:39:10.439Z,8.74
2019-03-17T20:41:41.469Z,8.82
2019-03-17T20:44:12.798Z,8.82
2019-03-17T20:46:44.452Z,8.72
2019-03-17T20:49:15.965Z,8.72
2019-03-17T20:51:47.266Z,8.84
2019-03-17T20:54:20.252Z,8.45
2019-03-17T20:56:51.766Z,8.30
2019-03-17T20:59:22.748Z,8.39
2019-03-17T21:01:54.261Z,8.38
2019-03-17T21:04:25.516Z,8.47
2019-03-17T21:06:56.775Z,8.44
2019-03-17T21:09:28.113Z,8.47
2019-03-17T21:11:59.376Z,8.38
2019-03-17T21:14:30.362Z,8.57
2019-03-17T21:17:02.001Z,8.82
2019-03-17T21:19:33.041Z,8.66
2019-03-17T21:22:04.067Z,8.57
2019-03-17T21:24:35.061Z,8.50
2019-03-17T21:27:06.262Z,8.65
2019-03-17T21:29:37.618Z,8.41
2019-03-17T21:32:08.643Z,8.51
2019-03-17T21:34:39.643Z,8.53
2019-03-17T21:37:10.714Z,8.49
2019-03-17T21:39:41.962Z,8.62
2019-03-17T21:42:13.016Z,8.39
2019-03-17T21:44:44.473Z,8.37
2019-03-17T21:47:15.694Z,8.37
2019-03-17T21:49:47.094Z,8.55
2019-03-17T21:52:18.213Z,8.56
2019-03-17T21:54:49.838Z,8.54
2019-03-17T21:57:20.795Z,8.52
2019-03-17T21:59:51.780Z,8.53
2019-03-17T22:02:22.743Z,8.63
2019-03-17T22:04:54.314Z,8.57
2019-03-17T22:07:25.694Z,8.36
2019-03-17T22:09:57.433Z,8.56
2019-03-17T22:12:28.482Z,8.72
2019-03-17T22:15:00.368Z,8.69
2019-03-17T22:17:32.075Z,8.70
2019-03-17T22:20:03.150Z,8.57
2019-03-17T22:22:35.990Z,8.58
2019-03-17T22:25:07.761Z,8.54
2019-03-17T22:27:38.750Z,8.45
2019-03-17T22:30:11.698Z,8.56
2019-03-17T22:32:42.779Z,8.46
2019-03-17T22:35:14.182Z,8.39
2019-03-17T22:37:45.503Z,8.47
2019-03-17T22:40:16.618Z,8.40
2019-03-17T22:42:48.090Z,8.28
2019-03-17T22:45:20.398Z,8.35
2019-03-17T22:47:51.834Z,8.24
2019-03-17T22:50:22.899Z,8.40
2019-03-17T22:52:54.130Z,8.51
2019-03-17T22:55:25.359Z,8.47
2019-03-17T22:57:59.099Z,8.38
2019-03-17T23:00:45.892Z,8.40
2019-03-17T23:03:17.155Z,8.46
2019-03-17T23:05:48.208Z,8.43
2019-03-17T23:08:20.253Z,8.34
2019-03-17T23:10:51.228Z,8.50
2019-03-17T23:13:22.556Z,8.46
2019-03-17T23:15:53.601Z,8.55
2019-03-17T23:18:24.625Z,8.51
2019-03-17T23:20:55.714Z,8.36
2019-03-17T23:23:26.993Z,8.39
2019-03-17T23:25:57.999Z,8.45
2019-03-17T23:28:29.014Z,8.48
2019-03-17T23:31:00.090Z,8.46
2019-03-17T23:33:32.289Z,8.40
2019-03-17T23:36:03.358Z,8.38
2019-03-17T23:38:34.408Z,8.40
2019-03-17T23:41:05.422Z,8.45
2019-03-17T23:43:36.969Z,8.33
2019-03-17T23:46:08.020Z,8.35
2019-03-17T23:48:39.399Z,8.36
2019-03-17T23:51:10.614Z,8.36
2019-03-17T23:53:41.657Z,8.21
2019-03-17T23:56:12.684Z,8.24
2019-03-17T23:58:43.770Z,8.14
